sensor_id;sensor_type;location;lat;lon;timestamp;pressure;altitude;pressure_sealevel;temperature;humidity
46408;BME280;32110;45.724;21.276;2023-03-03T07:25:49;100766.47;;;4.64;nan
46408;BME280;32110;45.724;21.276;2023-03-03T07:30:43;100775.41;;;4.69;nan
46408;BME280;32110;45.724;21.276;2023-03-03T07:33:35;100764.50;;;4.66;nan
46408;BME280;32110;45.724;21.276;2023-03-03T07:36:03;100769.88;;;4.64;nan
46408;BME280;32110;45.724;21.276;2023-03-03T07:38:37;100760.44;;;4.63;nan
46408;BME280;32110;45.724;21.276;2023-03-03T07:41:12;100754.78;;;4.60;nan
46408;BME280;32110;45.724;21.276;2023-03-03T07:43:42;100750.53;;;4.59;nan
46408;BME280;32110;45.724;21.276;2023-03-03T07:49:20;100764.25;;;4.76;nan
46408;BME280;32110;45.724;21.276;2023-03-03T07:51:46;100757.94;;;4.70;nan
46408;BME280;32110;45.724;21.276;2023-03-03T07:56:46;100755.34;;;4.70;nan
46408;BME280;32110;45.724;21.276;2023-03-03T07:59:19;100761.25;;;4.79;nan
46408;BME280;32110;45.724;21.276;2023-03-03T08:01:46;100764.50;;;4.81;nan
46408;BME280;32110;45.724;21.276;2023-03-03T08:04:39;100765.34;;;4.81;nan
46408;BME280;32110;45.724;21.276;2023-03-03T08:07:16;100754.59;;;4.76;nan
46408;BME280;32110;45.724;21.276;2023-03-03T08:09:43;100767.59;;;4.84;nan
46408;BME280;32110;45.724;21.276;2023-03-03T08:15:13;100756.16;;;4.85;nan
46408;BME280;32110;45.724;21.276;2023-03-03T08:17:41;100756.63;;;4.89;nan
46408;BME280;32110;45.724;21.276;2023-03-03T08:23:27;100748.59;;;4.90;nan
46408;BME280;32110;45.724;21.276;2023-03-03T08:25:53;100759.94;;;4.98;nan
46408;BME280;32110;45.724;21.276;2023-03-03T08:28:19;100763.19;;;5.15;nan
46408;BME280;32110;45.724;21.276;2023-03-03T08:30:44;100750.91;;;5.60;nan
46408;BME280;32110;45.724;21.276;2023-03-03T08:33:11;100737.41;;;5.56;nan
46408;BME280;32110;45.724;21.276;2023-03-03T08:35:36;100755.78;;;5.48;nan
46408;BME280;32110;45.724;21.276;2023-03-03T08:38:02;100747.25;;;5.39;nan
46408;BME280;32110;45.724;21.276;2023-03-03T08:40:28;100745.00;;;5.36;nan
46408;BME280;32110;45.724;21.276;2023-03-03T08:42:53;100750.22;;;5.36;nan
46408;BME280;32110;45.724;21.276;2023-03-03T08:45:19;100756.31;;;5.43;nan
46408;BME280;32110;45.724;21.276;2023-03-03T08:47:44;100756.31;;;5.43;nan
46408;BME280;32110;45.724;21.276;2023-03-03T08:50:10;100752.66;;;5.38;nan
46408;BME280;32110;45.724;21.276;2023-03-03T08:52:36;100755.91;;;5.40;nan
46408;BME280;32110;45.724;21.276;2023-03-03T08:55:02;100749.25;;;5.37;nan
46408;BME280;32110;45.724;21.276;2023-03-03T08:57:28;100767.06;;;5.48;nan
46408;BME280;32110;45.724;21.276;2023-03-03T08:59:53;100766.44;;;5.46;nan
46408;BME280;32110;45.724;21.276;2023-03-03T09:02:19;100755.78;;;5.48;nan
46408;BME280;32110;45.724;21.276;2023-03-03T09:04:44;100749.88;;;5.39;nan
46408;BME280;32110;45.724;21.276;2023-03-03T09:07:10;100754.81;;;5.49;nan
46408;BME280;32110;45.724;21.276;2023-03-03T09:09:35;100754.97;;;5.47;nan
46408;BME280;32110;45.724;21.276;2023-03-03T09:12:14;100751.03;;;5.51;nan
46408;BME280;32110;45.724;21.276;2023-03-03T09:14:39;100749.59;;;5.49;nan
46408;BME280;32110;45.724;21.276;2023-03-03T09:17:25;100747.16;;;5.47;nan
46408;BME280;32110;45.724;21.276;2023-03-03T09:19:57;100745.00;;;5.51;nan
46408;BME280;32110;45.724;21.276;2023-03-03T09:22:25;100755.16;;;5.61;nan
46408;BME280;32110;45.724;21.276;2023-03-03T09:24:56;100764.06;;;5.66;nan
46408;BME280;32110;45.724;21.276;2023-03-03T09:27:34;100753.16;;;5.63;nan
46408;BME280;32110;45.724;21.276;2023-03-03T09:30:15;100730.28;;;5.50;nan
46408;BME280;32110;45.724;21.276;2023-03-03T09:32:47;100750.34;;;5.64;nan
46408;BME280;32110;45.724;21.276;2023-03-03T09:37:51;100752.78;;;5.66;nan
46408;BME280;32110;45.724;21.276;2023-03-03T09:49:24;100758.06;;;5.87;nan
46408;BME280;32110;45.724;21.276;2023-03-03T09:52:06;100763.19;;;5.95;nan
46408;BME280;32110;45.724;21.276;2023-03-03T09:54:57;100761.84;;;6.00;nan
46408;BME280;32110;45.724;21.276;2023-03-03T09:57:45;100756.84;;;6.05;nan
46408;BME280;32110;45.724;21.276;2023-03-03T10:04:15;100761.84;;;6.21;nan
46408;BME280;32110;45.724;21.276;2023-03-03T10:17:14;100735.78;;;6.34;nan
46408;BME280;32110;45.724;21.276;2023-03-03T10:33:53;100745.13;;;6.72;nan
46408;BME280;32110;45.724;21.276;2023-03-03T10:41:47;100732.59;;;6.95;nan
46408;BME280;32110;45.724;21.276;2023-03-03T10:49:55;100733.31;;;7.17;nan
46408;BME280;32110;45.724;21.276;2023-03-03T10:52:35;100798.22;;;7.63;nan
46408;BME280;32110;45.724;21.276;2023-03-03T10:57:53;100721.47;;;7.21;nan
46408;BME280;32110;45.724;21.276;2023-03-03T11:00:22;100730.94;;;7.22;nan
46408;BME280;32110;45.724;21.276;2023-03-03T11:03:08;100720.06;;;7.19;nan
46408;BME280;32110;45.724;21.276;2023-03-03T11:08:38;100719.88;;;7.27;nan
46408;BME280;32110;45.724;21.276;2023-03-03T11:12:04;100727.13;;;7.25;nan
46408;BME280;32110;45.724;21.276;2023-03-03T11:14:42;100704.56;;;7.24;nan
46408;BME280;32110;45.724;21.276;2023-03-03T11:17:42;100719.09;;;7.33;nan
46408;BME280;32110;45.724;21.276;2023-03-03T11:20:09;100714.66;;;7.34;nan
46408;BME280;32110;45.724;21.276;2023-03-03T11:30:48;100707.06;;;7.59;nan
46408;BME280;32110;45.724;21.276;2023-03-03T11:36:13;100692.38;;;7.58;nan
46408;BME280;32110;45.724;21.276;2023-03-03T11:38:59;100682.91;;;7.57;nan
46408;BME280;32110;45.724;21.276;2023-03-03T11:41:33;100704.91;;;7.69;nan
46408;BME280;32110;45.724;21.276;2023-03-03T11:44:10;100690.78;;;7.70;nan
46408;BME280;32110;45.724;21.276;2023-03-03T11:46:48;100682.31;;;7.68;nan
46408;BME280;32110;45.724;21.276;2023-03-03T11:49:49;100682.53;;;7.66;nan
46408;BME280;32110;45.724;21.276;2023-03-03T11:54:59;100697.84;;;7.70;nan
46408;BME280;32110;45.724;21.276;2023-03-03T12:00:24;100688.78;;;7.72;nan
46408;BME280;32110;45.724;21.276;2023-03-03T12:08:26;100690.00;;;7.76;nan
46408;BME280;32110;45.724;21.276;2023-03-03T12:19:34;100679.31;;;7.78;nan
46408;BME280;32110;45.724;21.276;2023-03-03T12:33:04;100677.09;;;7.81;nan
46408;BME280;32110;45.724;21.276;2023-03-03T12:35:42;100680.94;;;7.79;nan
46408;BME280;32110;45.724;21.276;2023-03-03T12:38:39;100683.16;;;7.82;nan
46408;BME280;32110;45.724;21.276;2023-03-03T12:46:59;100687.19;;;7.84;nan
46408;BME280;32110;45.724;21.276;2023-03-03T12:49:38;100672.66;;;7.75;nan
46408;BME280;32110;45.724;21.276;2023-03-03T12:52:25;100671.66;;;7.76;nan
46408;BME280;32110;45.724;21.276;2023-03-03T12:55:03;100676.69;;;7.78;nan
46408;BME280;32110;45.724;21.276;2023-03-03T12:58:42;100672.25;;;7.78;nan
46408;BME280;32110;45.724;21.276;2023-03-03T13:03:44;100678.91;;;7.74;nan
46408;BME280;32110;45.724;21.276;2023-03-03T13:14:30;100678.72;;;7.82;nan
46408;BME280;32110;45.724;21.276;2023-03-03T13:22:19;100678.31;;;7.92;nan
46408;BME280;32110;45.724;21.276;2023-03-03T13:25:01;100667.44;;;7.95;nan
46408;BME280;32110;45.724;21.276;2023-03-03T13:27:35;100644.81;;;7.87;nan
46408;BME280;32110;45.724;21.276;2023-03-03T13:32:59;100659.38;;;8.03;nan
46408;BME280;32110;45.724;21.276;2023-03-03T13:35:39;100658.16;;;8.06;nan
46408;BME280;32110;45.724;21.276;2023-03-03T13:38:12;100640.41;;;7.88;nan
46408;BME280;32110;45.724;21.276;2023-03-03T13:40:44;100648.88;;;7.97;nan
46408;BME280;32110;45.724;21.276;2023-03-03T13:43:23;100652.31;;;8.04;nan
46408;BME280;32110;45.724;21.276;2023-03-03T13:51:07;100635.34;;;7.86;nan
46408;BME280;32110;45.724;21.276;2023-03-03T13:54:04;100659.97;;;8.05;nan
46408;BME280;32110;45.724;21.276;2023-03-03T13:56:57;100638.00;;;7.93;nan
46408;BME280;32110;45.724;21.276;2023-03-03T14:05:03;100622.88;;;7.95;nan
46408;BME280;32110;45.724;21.276;2023-03-03T14:13:01;100624.66;;;8.01;nan
46408;BME280;32110;45.724;21.276;2023-03-03T14:15:57;100640.59;;;8.13;nan
46408;BME280;32110;45.724;21.276;2023-03-03T14:18:54;100639.00;;;8.12;nan
46408;BME280;32110;45.724;21.276;2023-03-03T14:21:28;100626.28;;;8.02;nan
46408;BME280;32110;45.724;21.276;2023-03-03T14:26:51;100624.66;;;7.95;nan
46408;BME280;32110;45.724;21.276;2023-03-03T14:31:50;100643.03;;;8.01;nan
46408;BME280;32110;45.724;21.276;2023-03-03T14:36:48;100631.53;;;7.96;nan
46408;BME280;32110;45.724;21.276;2023-03-03T14:39:35;100635.75;;;8.03;nan
46408;BME280;32110;45.724;21.276;2023-03-03T14:42:11;100640.59;;;8.06;nan
46408;BME280;32110;45.724;21.276;2023-03-03T14:49:36;100631.34;;;7.91;nan
46408;BME280;32110;45.724;21.276;2023-03-03T14:54:47;100633.53;;;7.94;nan
46408;BME280;32110;45.724;21.276;2023-03-03T14:57:17;100640.63;;;8.00;nan
46408;BME280;32110;45.724;21.276;2023-03-03T15:00:08;100640.41;;;8.01;nan
46408;BME280;32110;45.724;21.276;2023-03-03T15:03:22;100638.78;;;8.00;nan
46408;BME280;32110;45.724;21.276;2023-03-03T15:05:55;100629.50;;;7.91;nan
46408;BME280;32110;45.724;21.276;2023-03-03T15:08:35;100635.75;;;7.97;nan
46408;BME280;32110;45.724;21.276;2023-03-03T15:13:37;100631.53;;;7.89;nan
46408;BME280;32110;45.724;21.276;2023-03-03T15:16:23;100635.38;;;7.93;nan
46408;BME280;32110;45.724;21.276;2023-03-03T15:22:19;100631.53;;;7.89;nan
46408;BME280;32110;45.724;21.276;2023-03-03T15:24:57;100617.00;;;7.73;nan
46408;BME280;32110;45.724;21.276;2023-03-03T15:30:27;100645.84;;;7.80;nan
46408;BME280;32110;45.724;21.276;2023-03-03T15:43:44;100646.84;;;7.72;nan
46408;BME280;32110;45.724;21.276;2023-03-03T15:46:32;100652.28;;;7.77;nan
46408;BME280;32110;45.724;21.276;2023-03-03T15:54:35;100640.16;;;7.56;nan
46408;BME280;32110;45.724;21.276;2023-03-03T16:02:49;100662.16;;;7.69;nan
46408;BME280;32110;45.724;21.276;2023-03-03T16:05:35;100663.16;;;7.67;nan
46408;BME280;32110;45.724;21.276;2023-03-03T16:11:06;100663.97;;;7.68;nan
46408;BME280;32110;45.724;21.276;2023-03-03T16:16:41;100672.22;;;7.58;nan
46408;BME280;32110;45.724;21.276;2023-03-03T16:27:21;100674.38;;;7.41;nan
46408;BME280;32110;45.724;21.276;2023-03-03T16:43:05;100688.06;;;7.37;nan
46408;BME280;32110;45.724;21.276;2023-03-03T16:45:37;100669.91;;;7.29;nan
46408;BME280;32110;45.724;21.276;2023-03-03T16:50:37;100685.63;;;7.29;nan
46408;BME280;32110;45.724;21.276;2023-03-03T16:56:13;100666.66;;;7.20;nan
46408;BME280;32110;45.724;21.276;2023-03-03T17:14:54;100698.09;;;7.20;nan
46408;BME280;32110;45.724;21.276;2023-03-03T17:23:14;100694.09;;;7.31;nan
46408;BME280;32110;45.724;21.276;2023-03-03T17:29:00;100696.91;;;7.29;nan
46408;BME280;32110;45.724;21.276;2023-03-03T17:42:49;100703.13;;;7.21;nan
46408;BME280;32110;45.724;21.276;2023-03-03T17:45:20;100695.88;;;7.17;nan
46408;BME280;32110;45.724;21.276;2023-03-03T17:50:58;100695.69;;;7.25;nan
46408;BME280;32110;45.724;21.276;2023-03-03T17:56:39;100714.66;;;7.34;nan
46408;BME280;32110;45.724;21.276;2023-03-03T18:25:11;100715.63;;;7.19;nan
46408;BME280;32110;45.724;21.276;2023-03-03T18:30:26;100734.75;;;7.20;nan
46408;BME280;32110;45.724;21.276;2023-03-03T18:41:10;100747.69;;;7.28;nan
46408;BME280;32110;45.724;21.276;2023-03-03T18:43:40;100745.09;;;7.28;nan
46408;BME280;32110;45.724;21.276;2023-03-03T19:12:52;100723.66;;;7.18;nan
46408;BME280;32110;45.724;21.276;2023-03-03T19:18:19;100749.31;;;7.29;nan
46408;BME280;32110;45.724;21.276;2023-03-03T19:20:45;100745.44;;;7.25;nan
46408;BME280;32110;45.724;21.276;2023-03-03T19:23:14;100747.69;;;7.28;nan
46408;BME280;32110;45.724;21.276;2023-03-03T19:25:40;100731.72;;;7.16;nan
46408;BME280;32110;45.724;21.276;2023-03-03T19:31:00;100751.53;;;7.26;nan
46408;BME280;32110;45.724;21.276;2023-03-03T19:33:38;100748.28;;;7.23;nan
46408;BME280;32110;45.724;21.276;2023-03-03T19:36:16;100758.94;;;7.22;nan
46408;BME280;32110;45.724;21.276;2023-03-03T19:42:08;100754.06;;;7.12;nan
46408;BME280;32110;45.724;21.276;2023-03-03T19:47:34;100754.84;;;7.13;nan
46408;BME280;32110;45.724;21.276;2023-03-03T19:55:26;100756.69;;;7.12;nan
46408;BME280;32110;45.724;21.276;2023-03-03T19:58:03;100744.56;;;7.05;nan
46408;BME280;32110;45.724;21.276;2023-03-03T20:00:41;100744.56;;;7.05;nan
46408;BME280;32110;45.724;21.276;2023-03-03T20:09:14;100765.09;;;7.08;nan
46408;BME280;32110;45.724;21.276;2023-03-03T20:16:46;100764.03;;;6.95;nan
46408;BME280;32110;45.724;21.276;2023-03-03T20:25:24;100780.16;;;6.99;nan
46408;BME280;32110;45.724;21.276;2023-03-03T20:30:55;100784.59;;;6.98;nan
46408;BME280;32110;45.724;21.276;2023-03-03T20:33:49;100791.00;;;6.96;nan
46408;BME280;32110;45.724;21.276;2023-03-03T20:36:41;100787.97;;;6.92;nan
46408;BME280;32110;45.724;21.276;2023-03-03T20:39:20;100797.03;;;6.90;nan
46408;BME280;32110;45.724;21.276;2023-03-03T20:42:02;100780.41;;;6.76;nan
46408;BME280;32110;45.724;21.276;2023-03-03T20:50:06;100768.63;;;6.65;nan
46408;BME280;32110;45.724;21.276;2023-03-03T21:03:06;100794.38;;;6.62;nan
46408;BME280;32110;45.724;21.276;2023-03-03T21:05:34;100795.19;;;6.62;nan
46408;BME280;32110;45.724;21.276;2023-03-03T21:08:17;100797.00;;;6.62;nan
46408;BME280;32110;45.724;21.276;2023-03-03T21:10:55;100789.09;;;6.55;nan
46408;BME280;32110;45.724;21.276;2023-03-03T21:13:38;100789.66;;;6.50;nan
46408;BME280;32110;45.724;21.276;2023-03-03T21:18:34;100778.66;;;6.33;nan
46408;BME280;32110;45.724;21.276;2023-03-03T21:20:59;100770.38;;;6.30;nan
46408;BME280;32110;45.724;21.276;2023-03-03T21:23:25;100774.78;;;6.29;nan
46408;BME280;32110;45.724;21.276;2023-03-03T21:25:52;100766.31;;;6.27;nan
46408;BME280;32110;45.724;21.276;2023-03-03T21:36:59;100799.44;;;6.42;nan
46408;BME280;32110;45.724;21.276;2023-03-03T21:38:59;100789.81;;;6.42;nan
46408;BME280;32110;45.724;21.276;2023-03-03T21:41:26;100775.66;;;6.36;nan
46408;BME280;32110;45.724;21.276;2023-03-03T21:43:52;100790.16;;;6.39;nan
46408;BME280;32110;45.724;21.276;2023-03-03T21:46:20;100794.19;;;6.42;nan
46408;BME280;32110;45.724;21.276;2023-03-03T21:48:48;100778.72;;;6.40;nan
46408;BME280;32110;45.724;21.276;2023-03-03T21:51:13;100784.56;;;6.42;nan
46408;BME280;32110;45.724;21.276;2023-03-03T21:53:40;100778.50;;;6.42;nan
46408;BME280;32110;45.724;21.276;2023-03-03T21:56:06;100797.13;;;6.53;nan
46408;BME280;32110;45.724;21.276;2023-03-03T21:58:31;100800.56;;;6.54;nan
46408;BME280;32110;45.724;21.276;2023-03-03T22:00:57;100788.41;;;6.46;nan
46408;BME280;32110;45.724;21.276;2023-03-03T22:03:22;100798.13;;;6.52;nan
46408;BME280;32110;45.724;21.276;2023-03-03T22:05:50;100788.69;;;6.51;nan
46408;BME280;32110;45.724;21.276;2023-03-03T22:08:15;100791.66;;;6.48;nan
46408;BME280;32110;45.724;21.276;2023-03-03T22:10:47;100793.53;;;6.54;nan
46408;BME280;32110;45.724;21.276;2023-03-03T22:13:16;100783.44;;;6.51;nan
46408;BME280;32110;45.724;21.276;2023-03-03T22:15:45;100793.91;;;6.51;nan
46408;BME280;32110;45.724;21.276;2023-03-03T22:18:10;100791.47;;;6.50;nan
46408;BME280;32110;45.724;21.276;2023-03-03T22:20:36;100800.94;;;6.51;nan
46408;BME280;32110;45.724;21.276;2023-03-03T22:23:01;100793.28;;;6.49;nan
46408;BME280;32110;45.724;21.276;2023-03-03T22:25:26;100803.19;;;6.54;nan
46408;BME280;32110;45.724;21.276;2023-03-03T22:27:52;100796.88;;;6.48;nan
46408;BME280;32110;45.724;21.276;2023-03-03T22:30:17;100785.19;;;6.44;nan
46408;BME280;32110;45.724;21.276;2023-03-03T22:32:42;100779.50;;;6.41;nan
46408;BME280;32110;45.724;21.276;2023-03-03T22:35:08;100773.66;;;6.38;nan
46408;BME280;32110;45.724;21.276;2023-03-03T22:37:34;100779.97;;;6.44;nan
46408;BME280;32110;45.724;21.276;2023-03-03T22:39:59;100782.50;;;6.37;nan
46408;BME280;32110;45.724;21.276;2023-03-03T22:42:25;100778.72;;;6.40;nan
46408;BME280;32110;45.724;21.276;2023-03-03T22:44:51;100767.56;;;6.31;nan
46408;BME280;32110;45.724;21.276;2023-03-03T22:47:16;100760.91;;;6.29;nan
46408;BME280;32110;45.724;21.276;2023-03-03T22:49:41;100768.56;;;6.30;nan
46408;BME280;32110;45.724;21.276;2023-03-03T22:52:07;100760.28;;;6.27;nan
46408;BME280;32110;45.724;21.276;2023-03-03T22:54:32;100756.69;;;6.28;nan
46408;BME280;32110;45.724;21.276;2023-03-03T22:56:57;100756.84;;;6.26;nan
46408;BME280;32110;45.724;21.276;2023-03-03T22:59:23;100760.91;;;6.29;nan
46408;BME280;32110;45.724;21.276;2023-03-03T23:01:48;100759.66;;;6.25;nan
46408;BME280;32110;45.724;21.276;2023-03-03T23:04:14;100752.13;;;6.15;nan
46408;BME280;32110;45.724;21.276;2023-03-03T23:06:39;100764.06;;;6.24;nan
46408;BME280;32110;45.724;21.276;2023-03-03T23:09:04;100758.59;;;6.19;nan
46408;BME280;32110;45.724;21.276;2023-03-03T23:11:31;100768.13;;;6.27;nan
46408;BME280;32110;45.724;21.276;2023-03-03T23:13:57;100747.72;;;6.15;nan
46408;BME280;32110;45.724;21.276;2023-03-03T23:16:22;100746.84;;;6.08;nan
46408;BME280;32110;45.724;21.276;2023-03-03T23:18:48;100768.88;;;6.21;nan
46408;BME280;32110;45.724;21.276;2023-03-03T23:21:13;100765.19;;;6.15;nan
46408;BME280;32110;45.724;21.276;2023-03-03T23:23:38;100763.59;;;6.14;nan
46408;BME280;32110;45.724;21.276;2023-03-03T23:26:04;100747.56;;;6.02;nan
46408;BME280;32110;45.724;21.276;2023-03-03T23:28:29;100770.25;;;6.16;nan
46408;BME280;32110;45.724;21.276;2023-03-03T23:30:54;100775.09;;;6.20;nan
46408;BME280;32110;45.724;21.276;2023-03-03T23:33:20;100784.75;;;6.19;nan
46408;BME280;32110;45.724;21.276;2023-03-03T23:35:45;100768.19;;;6.12;nan
46408;BME280;32110;45.724;21.276;2023-03-03T23:38:11;100763.34;;;6.09;nan
46408;BME280;32110;45.724;21.276;2023-03-03T23:40:40;100771.59;;;6.12;nan
46408;BME280;32110;45.724;21.276;2023-03-03T23:43:05;100764.56;;;6.13;nan
46408;BME280;32110;45.724;21.276;2023-03-03T23:45:31;100748.03;;;6.06;nan
46408;BME280;32110;45.724;21.276;2023-03-03T23:47:56;100759.34;;;6.13;nan
46408;BME280;32110;45.724;21.276;2023-03-03T23:50:22;100765.41;;;6.13;nan
46408;BME280;32110;45.724;21.276;2023-03-03T23:52:47;100764.75;;;6.11;nan
46408;BME280;32110;45.724;21.276;2023-03-03T23:55:13;100763.75;;;6.12;nan
46408;BME280;32110;45.724;21.276;2023-03-03T23:57:38;100765.94;;;6.09;nan
